sensor_id;sensor_type;location;lat;lon;timestamp;pressure;altitude;pressure_sealevel;temperature;humidity
76519;BME280;67029;51.054;13.798;2023-04-15T00:01:53;99167.55;;;10.90;67.40
76519;BME280;67029;51.054;13.798;2023-04-15T00:04:23;99171.34;;;10.87;67.61
76519;BME280;67029;51.054;13.798;2023-04-15T00:06:53;99172.86;;;10.95;67.69
76519;BME280;67029;51.054;13.798;2023-04-15T00:09:23;99166.61;;;10.95;67.49
76519;BME280;67029;51.054;13.798;2023-04-15T00:11:53;99161.34;;;10.95;67.48
76519;BME280;67029;51.054;13.798;2023-04-15T00:14:23;99152.91;;;10.88;67.48
76519;BME280;67029;51.054;13.798;2023-04-15T00:16:53;99154.81;;;10.78;67.65
76519;BME280;67029;51.054;13.798;2023-04-15T00:19:23;99156.91;;;10.66;68.18
76519;BME280;67029;51.054;13.798;2023-04-15T00:21:53;99157.12;;;10.75;67.98
76519;BME280;67029;51.054;13.798;2023-04-15T00:24:23;99156.08;;;10.84;67.77
76519;BME280;67029;51.054;13.798;2023-04-15T00:26:53;99156.17;;;10.83;67.63
76519;BME280;67029;51.054;13.798;2023-04-15T00:29:23;99162.48;;;10.79;67.66
76519;BME280;67029;51.054;13.798;2023-04-15T00:31:53;99159.99;;;10.83;67.58
76519;BME280;67029;51.054;13.798;2023-04-15T00:34:23;99155.59;;;10.85;67.66
76519;BME280;67029;51.054;13.798;2023-04-15T00:36:53;99150.89;;;10.85;67.88
76519;BME280;67029;51.054;13.798;2023-04-15T00:39:23;99148.65;;;10.86;67.66
76519;BME280;67029;51.054;13.798;2023-04-15T00:41:54;99143.52;;;10.97;67.68
76519;BME280;67029;51.054;13.798;2023-04-15T00:44:24;99139.64;;;11.00;67.54
76519;BME280;67029;51.054;13.798;2023-04-15T00:46:54;99142.48;;;10.96;67.45
76519;BME280;67029;51.054;13.798;2023-04-15T00:49:24;99144.75;;;10.96;67.20
76519;BME280;67029;51.054;13.798;2023-04-15T00:51:54;99142.10;;;10.99;67.64
76519;BME280;67029;51.054;13.798;2023-04-15T00:54:24;99143.20;;;10.90;67.35
76519;BME280;67029;51.054;13.798;2023-04-15T00:56:54;99141.67;;;10.87;67.76
76519;BME280;67029;51.054;13.798;2023-04-15T00:59:24;99140.23;;;10.95;67.71
76519;BME280;67029;51.054;13.798;2023-04-15T01:01:54;99139.12;;;10.97;67.34
76519;BME280;67029;51.054;13.798;2023-04-15T01:04:24;99135.30;;;10.93;67.31
76519;BME280;67029;51.054;13.798;2023-04-15T01:06:54;99126.98;;;10.90;67.33
76519;BME280;67029;51.054;13.798;2023-04-15T01:09:24;99129.53;;;10.89;67.63
76519;BME280;67029;51.054;13.798;2023-04-15T01:11:54;99127.80;;;10.93;67.33
76519;BME280;67029;51.054;13.798;2023-04-15T01:14:24;99128.19;;;10.92;67.28
76519;BME280;67029;51.054;13.798;2023-04-15T01:16:54;99124.27;;;10.85;67.83
76519;BME280;67029;51.054;13.798;2023-04-15T01:19:24;99124.37;;;10.90;67.46
76519;BME280;67029;51.054;13.798;2023-04-15T01:21:55;99124.87;;;10.89;67.78
76519;BME280;67029;51.054;13.798;2023-04-15T01:24:26;99123.33;;;10.86;67.47
76519;BME280;67029;51.054;13.798;2023-04-15T01:26:56;99123.25;;;10.85;67.82
76519;BME280;67029;51.054;13.798;2023-04-15T01:29:26;99122.53;;;10.93;67.65
76519;BME280;67029;51.054;13.798;2023-04-15T01:31:56;99114.06;;;10.94;67.44
76519;BME280;67029;51.054;13.798;2023-04-15T01:34:26;99111.41;;;11.00;67.26
76519;BME280;67029;51.054;13.798;2023-04-15T01:36:56;99110.33;;;11.07;67.20
76519;BME280;67029;51.054;13.798;2023-04-15T01:39:26;99107.06;;;11.06;67.05
76519;BME280;67029;51.054;13.798;2023-04-15T01:41:56;99107.23;;;11.03;66.93
76519;BME280;67029;51.054;13.798;2023-04-15T01:44:26;99110.61;;;11.01;67.08
76519;BME280;67029;51.054;13.798;2023-04-15T01:46:56;99113.44;;;11.05;67.16
76519;BME280;67029;51.054;13.798;2023-04-15T01:49:26;99109.87;;;11.08;67.07
76519;BME280;67029;51.054;13.798;2023-04-15T01:51:56;99106.80;;;11.01;67.11
76519;BME280;67029;51.054;13.798;2023-04-15T01:54:26;99104.31;;;11.07;67.38
76519;BME280;67029;51.054;13.798;2023-04-15T01:56:56;99101.31;;;11.08;66.97
76519;BME280;67029;51.054;13.798;2023-04-15T01:59:26;99095.25;;;10.98;67.05
76519;BME280;67029;51.054;13.798;2023-04-15T02:01:56;99092.30;;;10.88;67.45
76519;BME280;67029;51.054;13.798;2023-04-15T02:04:26;99089.81;;;10.91;67.37
76519;BME280;67029;51.054;13.798;2023-04-15T02:06:56;99093.52;;;10.84;67.43
76519;BME280;67029;51.054;13.798;2023-04-15T02:09:26;99097.16;;;10.77;67.99
76519;BME280;67029;51.054;13.798;2023-04-15T02:11:56;99095.97;;;10.74;67.93
76519;BME280;67029;51.054;13.798;2023-04-15T02:14:26;99085.62;;;10.83;67.74
76519;BME280;67029;51.054;13.798;2023-04-15T02:16:56;99092.23;;;10.86;67.84
76519;BME280;67029;51.054;13.798;2023-04-15T02:19:26;99085.55;;;10.85;67.64
76519;BME280;67029;51.054;13.798;2023-04-15T02:21:56;99081.55;;;10.93;67.70
76519;BME280;67029;51.054;13.798;2023-04-15T02:24:27;99079.84;;;10.94;67.43
76519;BME280;67029;51.054;13.798;2023-04-15T02:26:57;99082.11;;;10.97;67.32
76519;BME280;67029;51.054;13.798;2023-04-15T02:29:27;99079.31;;;10.95;67.54
76519;BME280;67029;51.054;13.798;2023-04-15T02:31:57;99075.23;;;10.88;67.54
76519;BME280;67029;51.054;13.798;2023-04-15T02:34:27;99075.52;;;10.85;67.60
76519;BME280;67029;51.054;13.798;2023-04-15T02:36:57;99073.47;;;10.83;67.99
76519;BME280;67029;51.054;13.798;2023-04-15T02:39:27;99080.66;;;10.92;67.68
76519;BME280;67029;51.054;13.798;2023-04-15T02:41:57;99080.78;;;10.91;67.44
76519;BME280;67029;51.054;13.798;2023-04-15T02:44:27;99077.94;;;10.90;67.66
76519;BME280;67029;51.054;13.798;2023-04-15T02:46:58;99079.89;;;10.95;67.59
76519;BME280;67029;51.054;13.798;2023-04-15T02:49:27;99081.17;;;10.92;67.60
76519;BME280;67029;51.054;13.798;2023-04-15T02:51:57;99090.69;;;10.98;67.50
76519;BME280;67029;51.054;13.798;2023-04-15T02:54:28;99088.55;;;11.04;67.65
76519;BME280;67029;51.054;13.798;2023-04-15T02:56:58;99087.30;;;10.98;67.59
76519;BME280;67029;51.054;13.798;2023-04-15T02:59:28;99082.75;;;10.98;67.55
76519;BME280;67029;51.054;13.798;2023-04-15T03:01:58;99084.51;;;11.03;67.69
76519;BME280;67029;51.054;13.798;2023-04-15T03:04:28;99080.23;;;11.05;67.40
76519;BME280;67029;51.054;13.798;2023-04-15T03:06:58;99075.94;;;11.02;67.46
76519;BME280;67029;51.054;13.798;2023-04-15T03:09:28;99075.66;;;10.97;67.65
76519;BME280;67029;51.054;13.798;2023-04-15T03:11:58;99072.94;;;10.93;67.67
76519;BME280;67029;51.054;13.798;2023-04-15T03:14:28;99073.39;;;10.92;68.11
76519;BME280;67029;51.054;13.798;2023-04-15T03:16:58;99067.38;;;10.99;67.83
76519;BME280;67029;51.054;13.798;2023-04-15T03:19:28;99067.65;;;11.04;67.61
76519;BME280;67029;51.054;13.798;2023-04-15T03:21:58;99066.81;;;11.02;67.46
76519;BME280;67029;51.054;13.798;2023-04-15T03:24:28;99073.12;;;10.95;67.78
76519;BME280;67029;51.054;13.798;2023-04-15T03:26:58;99063.02;;;10.87;67.94
76519;BME280;67029;51.054;13.798;2023-04-15T03:29:28;99066.56;;;10.87;68.23
76519;BME280;67029;51.054;13.798;2023-04-15T03:31:58;99054.78;;;10.93;67.95
76519;BME280;67029;51.054;13.798;2023-04-15T03:34:28;99056.17;;;10.89;67.88
76519;BME280;67029;51.054;13.798;2023-04-15T03:36:58;99053.93;;;10.88;68.09
76519;BME280;67029;51.054;13.798;2023-04-15T03:39:28;99054.83;;;10.92;67.91
76519;BME280;67029;51.054;13.798;2023-04-15T03:41:58;99051.95;;;10.87;68.06
76519;BME280;67029;51.054;13.798;2023-04-15T03:44:28;99050.67;;;10.87;68.01
76519;BME280;67029;51.054;13.798;2023-04-15T03:46:58;99046.86;;;10.88;67.95
76519;BME280;67029;51.054;13.798;2023-04-15T03:49:28;99047.10;;;10.86;68.32
76519;BME280;67029;51.054;13.798;2023-04-15T03:51:58;99045.94;;;10.89;68.21
76519;BME280;67029;51.054;13.798;2023-04-15T03:54:28;99041.98;;;10.94;67.96
76519;BME280;67029;51.054;13.798;2023-04-15T03:56:58;99039.03;;;10.96;67.98
76519;BME280;67029;51.054;13.798;2023-04-15T03:59:28;99038.50;;;10.94;68.02
76519;BME280;67029;51.054;13.798;2023-04-15T04:01:58;99038.06;;;10.95;68.11
76519;BME280;67029;51.054;13.798;2023-04-15T04:04:28;99043.14;;;10.95;67.89
76519;BME280;67029;51.054;13.798;2023-04-15T04:06:58;99042.36;;;10.99;68.00
76519;BME280;67029;51.054;13.798;2023-04-15T04:09:28;99052.31;;;10.93;68.62
76519;BME280;67029;51.054;13.798;2023-04-15T04:11:58;99052.45;;;10.91;68.57
76519;BME280;67029;51.054;13.798;2023-04-15T04:14:28;99042.17;;;10.95;68.19
76519;BME280;67029;51.054;13.798;2023-04-15T04:16:58;99047.15;;;10.98;68.30
76519;BME280;67029;51.054;13.798;2023-04-15T04:19:28;99045.07;;;11.02;67.90
76519;BME280;67029;51.054;13.798;2023-04-15T04:21:58;99042.73;;;11.01;68.29
76519;BME280;67029;51.054;13.798;2023-04-15T04:24:28;99046.52;;;10.97;67.95
76519;BME280;67029;51.054;13.798;2023-04-15T04:26:58;99046.04;;;10.99;68.24
76519;BME280;67029;51.054;13.798;2023-04-15T04:29:28;99050.53;;;10.96;67.99
76519;BME280;67029;51.054;13.798;2023-04-15T04:31:58;99050.16;;;10.89;68.19
76519;BME280;67029;51.054;13.798;2023-04-15T04:34:28;99051.30;;;10.88;68.38
76519;BME280;67029;51.054;13.798;2023-04-15T04:36:58;99052.44;;;10.88;68.35
76519;BME280;67029;51.054;13.798;2023-04-15T04:39:28;99053.03;;;10.89;68.34
76519;BME280;67029;51.054;13.798;2023-04-15T04:41:58;99056.49;;;10.92;68.28
76519;BME280;67029;51.054;13.798;2023-04-15T04:44:28;99058.98;;;10.94;68.19
76519;BME280;67029;51.054;13.798;2023-04-15T04:46:58;99059.75;;;10.98;68.10
76519;BME280;67029;51.054;13.798;2023-04-15T04:49:28;99060.41;;;10.96;68.07
76519;BME280;67029;51.054;13.798;2023-04-15T04:51:58;99067.38;;;10.90;68.21
76519;BME280;67029;51.054;13.798;2023-04-15T04:54:28;99077.25;;;10.86;68.52
76519;BME280;67029;51.054;13.798;2023-04-15T04:56:58;99082.06;;;10.93;68.39
76519;BME280;67029;51.054;13.798;2023-04-15T04:59:29;99081.22;;;11.00;68.17
76519;BME280;67029;51.054;13.798;2023-04-15T05:01:59;99083.45;;;11.09;67.94
76519;BME280;67029;51.054;13.798;2023-04-15T05:04:28;99077.91;;;11.08;67.84
76519;BME280;67029;51.054;13.798;2023-04-15T05:06:59;99077.45;;;11.13;67.88
76519;BME280;67029;51.054;13.798;2023-04-15T05:09:29;99072.36;;;11.05;68.00
76519;BME280;67029;51.054;13.798;2023-04-15T05:11:59;99076.12;;;10.96;68.16
76519;BME280;67029;51.054;13.798;2023-04-15T05:14:29;99080.33;;;10.95;68.39
76519;BME280;67029;51.054;13.798;2023-04-15T05:16:59;99086.05;;;11.00;68.25
76519;BME280;67029;51.054;13.798;2023-04-15T05:19:29;99086.44;;;11.11;68.03
76519;BME280;67029;51.054;13.798;2023-04-15T05:21:59;99081.66;;;11.19;67.81
76519;BME280;67029;51.054;13.798;2023-04-15T05:24:29;99088.32;;;11.27;67.69
76519;BME280;67029;51.054;13.798;2023-04-15T05:26:59;99087.66;;;11.36;67.47
76519;BME280;67029;51.054;13.798;2023-04-15T05:29:29;99087.43;;;11.46;67.20
76519;BME280;67029;51.054;13.798;2023-04-15T05:31:59;99087.47;;;11.52;66.97
76519;BME280;67029;51.054;13.798;2023-04-15T05:34:29;99087.09;;;11.57;66.77
76519;BME280;67029;51.054;13.798;2023-04-15T05:36:59;99086.06;;;11.62;66.64
76519;BME280;67029;51.054;13.798;2023-04-15T05:39:29;99088.73;;;11.68;66.48
76519;BME280;67029;51.054;13.798;2023-04-15T05:41:59;99088.35;;;11.69;66.33
76519;BME280;67029;51.054;13.798;2023-04-15T05:44:29;99088.41;;;11.74;66.28
76519;BME280;67029;51.054;13.798;2023-04-15T05:46:59;99097.62;;;11.77;66.21
76519;BME280;67029;51.054;13.798;2023-04-15T05:49:29;99100.46;;;11.80;66.12
76519;BME280;67029;51.054;13.798;2023-04-15T05:51:59;99104.16;;;11.81;66.14
76519;BME280;67029;51.054;13.798;2023-04-15T05:54:29;99111.77;;;11.83;66.01
76519;BME280;67029;51.054;13.798;2023-04-15T05:56:59;99114.84;;;11.85;65.95
76519;BME280;67029;51.054;13.798;2023-04-15T05:59:29;99114.20;;;11.89;65.99
76519;BME280;67029;51.054;13.798;2023-04-15T06:01:59;99115.74;;;11.93;65.80
76519;BME280;67029;51.054;13.798;2023-04-15T06:04:29;99118.70;;;11.93;65.74
76519;BME280;67029;51.054;13.798;2023-04-15T06:06:59;99120.89;;;11.93;65.71
76519;BME280;67029;51.054;13.798;2023-04-15T06:09:29;99121.11;;;11.94;65.57
76519;BME280;67029;51.054;13.798;2023-04-15T06:11:59;99120.23;;;11.95;65.58
76519;BME280;67029;51.054;13.798;2023-04-15T06:14:29;99124.69;;;11.96;65.54
76519;BME280;67029;51.054;13.798;2023-04-15T06:16:59;99129.83;;;11.99;65.49
76519;BME280;67029;51.054;13.798;2023-04-15T06:19:29;99129.72;;;12.01;65.36
76519;BME280;67029;51.054;13.798;2023-04-15T06:21:59;99130.84;;;12.05;65.33
76519;BME280;67029;51.054;13.798;2023-04-15T06:24:30;99131.35;;;12.08;65.17
76519;BME280;67029;51.054;13.798;2023-04-15T06:27:00;99135.48;;;12.10;65.06
76519;BME280;67029;51.054;13.798;2023-04-15T06:29:30;99133.20;;;12.12;64.97
76519;BME280;67029;51.054;13.798;2023-04-15T06:32:00;99132.25;;;12.13;64.93
76519;BME280;67029;51.054;13.798;2023-04-15T06:34:30;99135.73;;;12.10;64.91
76519;BME280;67029;51.054;13.798;2023-04-15T06:37:00;99141.35;;;12.12;65.15
76519;BME280;67029;51.054;13.798;2023-04-15T06:39:30;99143.62;;;12.15;64.98
76519;BME280;67029;51.054;13.798;2023-04-15T06:42:00;99143.68;;;12.17;64.95
76519;BME280;67029;51.054;13.798;2023-04-15T06:44:30;99144.83;;;12.20;64.92
76519;BME280;67029;51.054;13.798;2023-04-15T06:47:00;99145.88;;;12.23;64.88
76519;BME280;67029;51.054;13.798;2023-04-15T06:49:30;99146.89;;;12.26;64.75
76519;BME280;67029;51.054;13.798;2023-04-15T06:52:00;99150.80;;;12.28;64.74
76519;BME280;67029;51.054;13.798;2023-04-15T06:54:30;99154.94;;;12.24;64.86
76519;BME280;67029;51.054;13.798;2023-04-15T06:57:00;99150.03;;;12.26;64.95
76519;BME280;67029;51.054;13.798;2023-04-15T06:59:30;99150.87;;;12.31;64.93
76519;BME280;67029;51.054;13.798;2023-04-15T07:02:00;99155.12;;;12.30;64.95
76519;BME280;67029;51.054;13.798;2023-04-15T07:04:30;99160.59;;;12.33;64.99
76519;BME280;67029;51.054;13.798;2023-04-15T07:07:00;99165.16;;;12.40;64.87
76519;BME280;67029;51.054;13.798;2023-04-15T07:09:30;99167.81;;;12.41;64.94
76519;BME280;67029;51.054;13.798;2023-04-15T07:12:00;99167.86;;;12.48;64.80
76519;BME280;67029;51.054;13.798;2023-04-15T07:14:30;99166.69;;;12.57;64.68
76519;BME280;67029;51.054;13.798;2023-04-15T07:17:00;99171.45;;;12.62;64.57
76519;BME280;67029;51.054;13.798;2023-04-15T07:19:30;99179.49;;;12.67;64.52
76519;BME280;67029;51.054;13.798;2023-04-15T07:22:00;99181.43;;;12.71;64.39
76519;BME280;67029;51.054;13.798;2023-04-15T07:24:30;99183.18;;;12.70;64.14
76519;BME280;67029;51.054;13.798;2023-04-15T07:27:00;99186.73;;;12.56;64.37
76519;BME280;67029;51.054;13.798;2023-04-15T07:29:31;99186.45;;;12.58;64.42
76519;BME280;67029;51.054;13.798;2023-04-15T07:32:01;99188.21;;;12.50;64.46
76519;BME280;67029;51.054;13.798;2023-04-15T07:34:31;99188.83;;;12.41;64.68
76519;BME280;67029;51.054;13.798;2023-04-15T07:37:01;99188.23;;;12.39;64.95
76519;BME280;67029;51.054;13.798;2023-04-15T07:39:31;99191.19;;;12.50;64.75
76519;BME280;67029;51.054;13.798;2023-04-15T07:42:01;99193.44;;;12.58;64.52
76519;BME280;67029;51.054;13.798;2023-04-15T07:44:31;99194.53;;;12.66;64.49
76519;BME280;67029;51.054;13.798;2023-04-15T07:47:01;99198.38;;;12.63;64.24
76519;BME280;67029;51.054;13.798;2023-04-15T07:49:31;99197.55;;;12.62;64.39
76519;BME280;67029;51.054;13.798;2023-04-15T07:52:02;99197.36;;;12.73;64.12
76519;BME280;67029;51.054;13.798;2023-04-15T07:54:32;99194.34;;;12.81;63.99
76519;BME280;67029;51.054;13.798;2023-04-15T07:57:02;99200.50;;;12.88;63.75
76519;BME280;67029;51.054;13.798;2023-04-15T07:59:32;99207.58;;;12.91;63.64
76519;BME280;67029;51.054;13.798;2023-04-15T08:02:02;99210.48;;;12.88;63.76
76519;BME280;67029;51.054;13.798;2023-04-15T08:04:32;99211.41;;;13.01;63.71
76519;BME280;67029;51.054;13.798;2023-04-15T08:07:02;99210.55;;;13.05;63.46
76519;BME280;67029;51.054;13.798;2023-04-15T08:09:32;99218.62;;;13.09;63.22
76519;BME280;67029;51.054;13.798;2023-04-15T08:12:02;99221.37;;;13.21;63.07
76519;BME280;67029;51.054;13.798;2023-04-15T08:14:32;99227.61;;;13.34;62.81
76519;BME280;67029;51.054;13.798;2023-04-15T08:17:02;99233.88;;;13.42;62.56
76519;BME280;67029;51.054;13.798;2023-04-15T08:19:32;99231.05;;;13.49;62.31
76519;BME280;67029;51.054;13.798;2023-04-15T08:22:02;99229.21;;;13.54;62.20
76519;BME280;67029;51.054;13.798;2023-04-15T08:24:33;99231.89;;;13.59;62.23
76519;BME280;67029;51.054;13.798;2023-04-15T08:27:03;99231.18;;;13.69;62.14
76519;BME280;67029;51.054;13.798;2023-04-15T08:29:33;99232.26;;;13.80;61.91
76519;BME280;67029;51.054;13.798;2023-04-15T08:32:04;99232.92;;;13.88;61.63
76519;BME280;67029;51.054;13.798;2023-04-15T08:34:33;99234.62;;;13.97;61.46
76519;BME280;67029;51.054;13.798;2023-04-15T08:37:03;99234.30;;;14.05;61.39
76519;BME280;67029;51.054;13.798;2023-04-15T08:39:34;99236.30;;;14.11;60.96
76519;BME280;67029;51.054;13.798;2023-04-15T08:42:14;99238.31;;;14.15;60.47
76519;BME280;67029;51.054;13.798;2023-04-15T08:44:34;99236.72;;;14.17;60.27
76519;BME280;67029;51.054;13.798;2023-04-15T08:47:07;99242.98;;;14.17;60.24
76519;BME280;67029;51.054;13.798;2023-04-15T08:49:38;99245.12;;;14.19;60.31
76519;BME280;67029;51.054;13.798;2023-04-15T08:52:06;99247.98;;;14.19;60.23
76519;BME280;67029;51.054;13.798;2023-04-15T08:54:36;99249.66;;;14.24;60.11
76519;BME280;67029;51.054;13.798;2023-04-15T08:57:07;99252.54;;;14.28;60.09
76519;BME280;67029;51.054;13.798;2023-04-15T08:59:37;99253.88;;;14.30;59.80
76519;BME280;67029;51.054;13.798;2023-04-15T09:02:07;99265.91;;;14.17;59.62
76519;BME280;67029;51.054;13.798;2023-04-15T09:04:37;99261.56;;;13.97;59.85
76519;BME280;67029;51.054;13.798;2023-04-15T09:07:07;99265.39;;;13.89;60.05
76519;BME280;67029;51.054;13.798;2023-04-15T09:09:37;99263.52;;;13.81;59.88
76519;BME280;67029;51.054;13.798;2023-04-15T09:12:08;99271.63;;;13.77;59.55
76519;BME280;67029;51.054;13.798;2023-04-15T09:14:39;99268.55;;;13.58;59.42
76519;BME280;67029;51.054;13.798;2023-04-15T09:17:09;99275.98;;;13.36;59.65
76519;BME280;67029;51.054;13.798;2023-04-15T09:19:38;99280.20;;;13.28;59.79
76519;BME280;67029;51.054;13.798;2023-04-15T09:22:08;99283.83;;;13.05;59.53
76519;BME280;67029;51.054;13.798;2023-04-15T09:24:39;99287.57;;;12.79;60.04
76519;BME280;67029;51.054;13.798;2023-04-15T09:27:09;99291.86;;;12.56;60.46
76519;BME280;67029;51.054;13.798;2023-04-15T09:29:40;99284.38;;;12.52;60.29
76519;BME280;67029;51.054;13.798;2023-04-15T09:32:13;99281.77;;;12.46;60.24
76519;BME280;67029;51.054;13.798;2023-04-15T09:34:39;99286.62;;;12.30;60.26
76519;BME280;67029;51.054;13.798;2023-04-15T09:37:10;99289.41;;;12.20;60.58
76519;BME280;67029;51.054;13.798;2023-04-15T09:39:46;99295.38;;;12.16;60.74
76519;BME280;67029;51.054;13.798;2023-04-15T09:42:10;99306.33;;;12.18;60.52
76519;BME280;67029;51.054;13.798;2023-04-15T09:44:40;99302.09;;;12.21;60.71
76519;BME280;67029;51.054;13.798;2023-04-15T09:47:27;99310.06;;;12.40;60.41
76519;BME280;67029;51.054;13.798;2023-04-15T09:49:54;99311.76;;;12.46;60.27
76519;BME280;67029;51.054;13.798;2023-04-15T09:52:13;99316.73;;;12.60;60.21
76519;BME280;67029;51.054;13.798;2023-04-15T09:54:44;99318.70;;;12.70;59.93
76519;BME280;67029;51.054;13.798;2023-04-15T09:57:12;99317.52;;;12.77;59.68
76519;BME280;67029;51.054;13.798;2023-04-15T09:59:42;99323.15;;;12.86;59.53
76519;BME280;67029;51.054;13.798;2023-04-15T10:02:12;99321.98;;;12.88;59.15
76519;BME280;67029;51.054;13.798;2023-04-15T10:04:43;99325.19;;;12.93;59.41
76519;BME280;67029;51.054;13.798;2023-04-15T10:07:14;99328.52;;;12.93;58.67
76519;BME280;67029;51.054;13.798;2023-04-15T10:09:44;99331.39;;;12.93;58.63
76519;BME280;67029;51.054;13.798;2023-04-15T10:12:16;99331.20;;;12.93;58.58
76519;BME280;67029;51.054;13.798;2023-04-15T10:14:53;99341.03;;;12.76;58.43
76519;BME280;67029;51.054;13.798;2023-04-15T10:17:17;99336.47;;;12.57;59.14
76519;BME280;67029;51.054;13.798;2023-04-15T10:19:47;99334.06;;;12.49;59.10
76519;BME280;67029;51.054;13.798;2023-04-15T10:22:17;99333.77;;;12.39;59.44
76519;BME280;67029;51.054;13.798;2023-04-15T10:24:47;99339.00;;;12.51;59.40
76519;BME280;67029;51.054;13.798;2023-04-15T10:27:17;99343.91;;;12.34;59.34
76519;BME280;67029;51.054;13.798;2023-04-15T10:29:50;99341.69;;;12.38;59.45
76519;BME280;67029;51.054;13.798;2023-04-15T10:32:19;99347.56;;;12.57;59.35
76519;BME280;67029;51.054;13.798;2023-04-15T10:34:49;99344.52;;;12.67;58.49
76519;BME280;67029;51.054;13.798;2023-04-15T10:37:20;99347.78;;;12.76;58.40
76519;BME280;67029;51.054;13.798;2023-04-15T10:39:50;99346.16;;;12.65;58.12
76519;BME280;67029;51.054;13.798;2023-04-15T10:42:20;99340.80;;;12.57;58.69
76519;BME280;67029;51.054;13.798;2023-04-15T10:44:55;99342.16;;;12.61;58.74
76519;BME280;67029;51.054;13.798;2023-04-15T10:47:20;99345.65;;;12.70;58.74
76519;BME280;67029;51.054;13.798;2023-04-15T10:49:58;99349.31;;;12.76;58.63
76519;BME280;67029;51.054;13.798;2023-04-15T10:52:24;99349.27;;;12.86;58.63
76519;BME280;67029;51.054;13.798;2023-04-15T10:55:13;99347.39;;;12.98;58.45
76519;BME280;67029;51.054;13.798;2023-04-15T10:57:23;99351.73;;;13.10;58.52
76519;BME280;67029;51.054;13.798;2023-04-15T11:00:10;99353.34;;;13.25;58.19
76519;BME280;67029;51.054;13.798;2023-04-15T11:02:40;99355.85;;;13.26;58.20
76519;BME280;67029;51.054;13.798;2023-04-15T11:04:56;99356.94;;;13.40;57.73
76519;BME280;67029;51.054;13.798;2023-04-15T11:07:48;99356.95;;;13.52;57.24
76519;BME280;67029;51.054;13.798;2023-04-15T11:09:54;99363.12;;;13.52;56.70
76519;BME280;67029;51.054;13.798;2023-04-15T11:12:35;99369.05;;;13.58;56.58
76519;BME280;67029;51.054;13.798;2023-04-15T11:14:56;99369.66;;;13.50;56.81
76519;BME280;67029;51.054;13.798;2023-04-15T11:17:26;99370.92;;;13.55;56.47
76519;BME280;67029;51.054;13.798;2023-04-15T11:19:57;99375.84;;;13.62;55.97
76519;BME280;67029;51.054;13.798;2023-04-15T11:22:26;99376.66;;;13.58;56.60
76519;BME280;67029;51.054;13.798;2023-04-15T11:24:56;99378.03;;;13.60;56.31
76519;BME280;67029;51.054;13.798;2023-04-15T11:27:26;99383.97;;;13.68;56.24
76519;BME280;67029;51.054;13.798;2023-04-15T11:29:57;99389.67;;;13.76;55.75
76519;BME280;67029;51.054;13.798;2023-04-15T11:32:27;99389.98;;;13.72;55.61
76519;BME280;67029;51.054;13.798;2023-04-15T11:34:57;99389.32;;;13.74;55.89
76519;BME280;67029;51.054;13.798;2023-04-15T11:37:28;99397.86;;;13.64;55.91
76519;BME280;67029;51.054;13.798;2023-04-15T11:39:58;99391.64;;;13.53;55.77
76519;BME280;67029;51.054;13.798;2023-04-15T11:42:28;99393.33;;;13.34;56.14
76519;BME280;67029;51.054;13.798;2023-04-15T11:45:12;99402.48;;;13.30;56.20
76519;BME280;67029;51.054;13.798;2023-04-15T11:47:31;99399.86;;;13.42;56.27
76519;BME280;67029;51.054;13.798;2023-04-15T11:50:19;99403.02;;;13.29;56.17
76519;BME280;67029;51.054;13.798;2023-04-15T11:52:29;99401.88;;;13.34;56.54
76519;BME280;67029;51.054;13.798;2023-04-15T11:55:02;99400.87;;;13.56;55.86
76519;BME280;67029;51.054;13.798;2023-04-15T11:57:33;99410.73;;;13.68;55.54
76519;BME280;67029;51.054;13.798;2023-04-15T12:00:01;99405.41;;;13.58;55.61
76519;BME280;67029;51.054;13.798;2023-04-15T12:02:30;99412.64;;;13.69;55.85
76519;BME280;67029;51.054;13.798;2023-04-15T12:05:07;99414.05;;;13.63;55.46
76519;BME280;67029;51.054;13.798;2023-04-15T12:07:31;99419.28;;;13.60;55.29
76519;BME280;67029;51.054;13.798;2023-04-15T12:10:02;99417.20;;;13.63;55.36
76519;BME280;67029;51.054;13.798;2023-04-15T12:12:32;99426.34;;;13.64;55.63
76519;BME280;67029;51.054;13.798;2023-04-15T12:15:02;99430.52;;;13.82;55.40
76519;BME280;67029;51.054;13.798;2023-04-15T12:17:33;99431.14;;;13.91;54.38
76519;BME280;67029;51.054;13.798;2023-04-15T12:20:02;99436.77;;;13.93;54.23
76519;BME280;67029;51.054;13.798;2023-04-15T12:22:36;99430.20;;;13.93;54.19
76519;BME280;67029;51.054;13.798;2023-04-15T12:25:03;99436.18;;;13.93;54.43
76519;BME280;67029;51.054;13.798;2023-04-15T12:27:33;99439.23;;;14.01;54.45
76519;BME280;67029;51.054;13.798;2023-04-15T12:30:04;99442.97;;;14.13;54.35
76519;BME280;67029;51.054;13.798;2023-04-15T12:32:34;99445.00;;;14.25;53.98
76519;BME280;67029;51.054;13.798;2023-04-15T12:35:05;99449.56;;;14.32;53.89
76519;BME280;67029;51.054;13.798;2023-04-15T12:37:35;99455.95;;;14.32;53.01
76519;BME280;67029;51.054;13.798;2023-04-15T12:40:07;99455.59;;;14.28;53.46
76519;BME280;67029;51.054;13.798;2023-04-15T12:42:35;99455.21;;;14.37;53.48
76519;BME280;67029;51.054;13.798;2023-04-15T12:45:06;99463.23;;;14.46;53.49
76519;BME280;67029;51.054;13.798;2023-04-15T12:47:36;99455.95;;;14.56;53.04
76519;BME280;67029;51.054;13.798;2023-04-15T12:50:06;99460.03;;;14.56;52.83
76519;BME280;67029;51.054;13.798;2023-04-15T12:52:36;99469.45;;;14.52;52.67
76519;BME280;67029;51.054;13.798;2023-04-15T12:55:07;99471.55;;;14.45;52.69
76519;BME280;67029;51.054;13.798;2023-04-15T12:57:37;99472.87;;;14.44;52.81
76519;BME280;67029;51.054;13.798;2023-04-15T13:00:07;99477.15;;;14.48;52.73
76519;BME280;67029;51.054;13.798;2023-04-15T13:02:37;99479.15;;;14.38;52.31
76519;BME280;67029;51.054;13.798;2023-04-15T13:05:08;99482.56;;;14.22;53.09